createdAt,value
2017-07-06T00:00:46.439Z,3.50
2017-07-06T00:03:16.275Z,3.40
2017-07-06T00:05:46.352Z,3.70
2017-07-06T00:08:16.353Z,4.03
2017-07-06T00:10:46.122Z,4.15
2017-07-06T00:13:16.208Z,3.95
2017-07-06T00:15:46.221Z,3.20
2017-07-06T00:18:16.240Z,4.30
2017-07-06T00:20:46.358Z,3.40
2017-07-06T00:23:16.580Z,3.62
2017-07-06T00:25:46.564Z,3.60
2017-07-06T00:28:16.316Z,3.70
2017-07-06T00:30:46.334Z,3.42
2017-07-06T00:33:16.100Z,3.40
2017-07-06T00:35:46.083Z,3.65
2017-07-06T00:38:16.228Z,3.50
2017-07-06T00:40:46.111Z,3.63
2017-07-06T00:43:16.551Z,3.60
2017-07-06T00:45:46.240Z,3.92
2017-07-06T00:48:16.208Z,4.00
2017-07-06T00:50:46.995Z,3.93
2017-07-06T00:53:17.074Z,3.42
2017-07-06T00:55:48.005Z,3.40
2017-07-06T00:58:18.037Z,3.60
2017-07-06T01:00:47.787Z,3.60
2017-07-06T01:03:17.896Z,4.10
2017-07-06T01:05:47.921Z,3.75
2017-07-06T01:08:17.758Z,3.42
2017-07-06T01:10:48.567Z,3.22
2017-07-06T01:13:18.843Z,3.70
2017-07-06T01:15:48.962Z,3.53
2017-07-06T01:18:18.925Z,3.50
2017-07-06T01:20:48.773Z,4.20
2017-07-06T01:23:18.571Z,3.70
2017-07-06T01:25:49.291Z,4.00
2017-07-06T01:28:19.166Z,3.58
2017-07-06T01:30:48.895Z,3.80
2017-07-06T01:33:18.696Z,3.80
2017-07-06T01:35:48.271Z,3.60
2017-07-06T01:38:18.996Z,3.50
2017-07-06T01:40:49.604Z,3.97
2017-07-06T01:43:19.510Z,3.78
2017-07-06T01:45:49.376Z,3.55
2017-07-06T01:48:19.894Z,3.30
2017-07-06T01:50:49.685Z,3.35
2017-07-06T01:53:19.319Z,3.30
2017-07-06T01:55:49.658Z,3.42
2017-07-06T01:58:19.688Z,3.30
2017-07-06T02:00:49.747Z,3.80
2017-07-06T02:03:19.604Z,3.60
2017-07-06T02:05:49.601Z,3.40
2017-07-06T02:08:20.023Z,3.33
2017-07-06T02:10:50.723Z,3.45
2017-07-06T02:13:20.543Z,3.80
2017-07-06T02:15:50.655Z,3.40
2017-07-06T02:18:20.511Z,3.37
2017-07-06T02:20:51.260Z,3.50
2017-07-06T02:23:21.216Z,3.30
2017-07-06T02:25:51.565Z,3.40
2017-07-06T02:28:21.673Z,4.30
2017-07-06T02:30:51.544Z,3.78
2017-07-06T02:33:21.456Z,3.40
2017-07-06T02:35:52.131Z,3.80
2017-07-06T02:38:22.307Z,3.30
2017-07-06T02:40:52.257Z,3.70
2017-07-06T02:43:22.115Z,3.70
2017-07-06T02:45:52.583Z,3.40
2017-07-06T02:48:22.246Z,3.45
2017-07-06T02:50:52.626Z,3.83
2017-07-06T02:53:22.450Z,3.70
2017-07-06T02:55:52.325Z,3.92
2017-07-06T02:58:22.379Z,4.00
2017-07-06T03:00:52.364Z,3.33
2017-07-06T03:03:22.189Z,3.75
2017-07-06T03:05:52.231Z,3.67
2017-07-06T03:08:22.746Z,3.67
2017-07-06T03:10:52.844Z,3.50
2017-07-06T03:13:23.019Z,3.22
2017-07-06T03:15:53.055Z,3.20
2017-07-06T03:18:23.838Z,3.50
2017-07-06T03:20:54.135Z,3.30
2017-07-06T03:23:24.896Z,3.67
2017-07-06T03:25:54.626Z,3.45
2017-07-06T03:28:24.433Z,3.90
2017-07-06T03:30:54.295Z,3.60
2017-07-06T03:33:24.312Z,3.40
2017-07-06T03:35:54.792Z,3.65
2017-07-06T03:38:24.859Z,3.70
2017-07-06T03:40:54.714Z,3.70
2017-07-06T03:43:24.235Z,3.10
2017-07-06T03:45:54.147Z,3.78
2017-07-06T03:48:24.082Z,3.60
2017-07-06T03:50:54.471Z,3.87
2017-07-06T03:53:24.267Z,3.70
2017-07-06T03:55:54.916Z,4.20
2017-07-06T03:58:25.163Z,3.55
2017-07-06T04:00:55.039Z,3.85
2017-07-06T04:03:25.292Z,3.40
2017-07-06T04:05:55.239Z,4.20
2017-07-06T04:08:25.063Z,3.50
2017-07-06T04:10:54.952Z,3.60
2017-07-06T04:13:24.471Z,3.90
2017-07-06T04:15:53.948Z,3.60
2017-07-06T04:18:23.500Z,3.78
2017-07-06T04:20:53.255Z,3.83
2017-07-06T04:23:22.766Z,4.05
2017-07-06T04:25:52.233Z,3.80
2017-07-06T04:28:21.805Z,3.50
2017-07-06T04:30:51.345Z,3.20
2017-07-06T04:33:21.258Z,4.12
2017-07-06T04:35:50.930Z,3.50
2017-07-06T04:38:20.779Z,4.10
2017-07-06T04:40:50.952Z,4.15
2017-07-06T04:43:20.988Z,4.70
2017-07-06T04:45:51.185Z,4.22
2017-07-06T04:48:20.986Z,4.00
2017-07-06T04:50:50.524Z,3.80
2017-07-06T04:53:20.009Z,3.10
2017-07-06T04:55:49.955Z,3.90
2017-07-06T04:58:20.568Z,3.90
2017-07-06T05:00:50.060Z,3.58
2017-07-06T05:03:20.025Z,3.50
2017-07-06T05:05:50.494Z,3.30
2017-07-06T05:08:20.387Z,3.80
2017-07-06T05:10:49.945Z,3.80
2017-07-06T05:13:19.517Z,3.20
2017-07-06T05:15:49.370Z,3.10
2017-07-06T05:18:18.908Z,3.37
2017-07-06T05:20:48.413Z,3.45
2017-07-06T05:23:17.987Z,3.80
2017-07-06T05:25:47.539Z,3.42
2017-07-06T05:28:17.626Z,3.50
2017-07-06T05:30:47.220Z,4.20
2017-07-06T05:33:16.765Z,4.20
2017-07-06T05:35:46.340Z,4.28
2017-07-06T05:38:16.032Z,4.10
2017-07-06T05:40:45.513Z,4.22
2017-07-06T05:43:15.030Z,3.90
2017-07-06T05:45:44.872Z,4.23
2017-07-06T05:48:14.460Z,4.30
2017-07-06T05:50:44.004Z,4.25
2017-07-06T05:53:13.524Z,4.22
2017-07-06T05:55:43.271Z,4.07
2017-07-06T05:58:13.247Z,5.05
2017-07-06T06:00:42.868Z,4.50
2017-07-06T06:03:12.431Z,4.07
2017-07-06T06:05:41.935Z,3.30
2017-07-06T06:08:11.464Z,3.30
2017-07-06T06:10:41.280Z,3.87
2017-07-06T06:13:10.852Z,3.87
2017-07-06T06:15:40.739Z,3.30
2017-07-06T06:18:10.456Z,3.20
2017-07-06T06:20:40.232Z,3.25
2017-07-06T06:23:09.771Z,3.20
2017-07-06T06:25:39.779Z,3.20
2017-07-06T06:28:09.999Z,3.20
2017-07-06T06:30:40.251Z,2.92
2017-07-06T06:33:14.479Z,2.70
2017-07-06T06:35:45.261Z,3.10
2017-07-06T06:38:16.673Z,3.20
2017-07-06T06:40:48.424Z,2.80
2017-07-06T06:43:17.984Z,2.67
2017-07-06T06:45:47.626Z,2.80
2017-07-06T06:48:17.151Z,2.80
2017-07-06T06:50:46.680Z,2.80
2017-07-06T06:53:16.212Z,2.80
2017-07-06T06:55:46.044Z,3.25
2017-07-06T06:58:15.889Z,3.20
2017-07-06T07:00:46.316Z,3.50
2017-07-06T07:03:16.232Z,3.92
2017-07-06T07:05:45.854Z,3.90
2017-07-06T07:08:15.405Z,3.10
2017-07-06T07:10:44.946Z,3.45
2017-07-06T07:13:14.432Z,2.50
2017-07-06T07:15:44.794Z,2.70
2017-07-06T07:18:14.494Z,3.37
2017-07-06T07:20:44.037Z,2.22
2017-07-06T07:23:13.878Z,2.50
2017-07-06T07:25:43.389Z,2.40
2017-07-06T07:28:12.913Z,2.70
2017-07-06T07:30:42.416Z,3.00
2017-07-06T07:33:11.943Z,2.67
2017-07-06T07:35:41.521Z,2.95
2017-07-06T07:38:11.063Z,2.78
2017-07-06T07:40:40.919Z,2.62
2017-07-06T07:43:10.469Z,2.97
2017-07-06T07:45:40.153Z,3.08
2017-07-06T07:48:09.733Z,2.47
2017-07-06T07:50:39.253Z,2.60
2017-07-06T07:53:09.254Z,3.10
2017-07-06T07:55:38.789Z,3.40
2017-07-06T07:58:08.296Z,3.20
2017-07-06T08:00:37.808Z,3.50
2017-07-06T08:03:07.411Z,3.43
2017-07-06T08:05:37.189Z,3.20
2017-07-06T08:08:07.973Z,3.00
2017-07-06T08:10:38.041Z,3.55
2017-07-06T08:13:07.562Z,2.90
2017-07-06T08:15:37.117Z,3.15
2017-07-06T08:18:06.659Z,3.57
2017-07-06T08:20:36.290Z,3.80
2017-07-06T08:23:06.011Z,3.20
2017-07-06T08:25:35.535Z,3.00
2017-07-06T08:28:05.280Z,4.00
2017-07-06T08:30:34.798Z,3.40
2017-07-06T08:33:04.471Z,3.70
2017-07-06T08:35:34.289Z,2.93
2017-07-06T08:38:03.876Z,2.80
2017-07-06T08:40:33.384Z,3.50
2017-07-06T08:43:02.898Z,4.00
2017-07-06T08:45:32.430Z,5.00
2017-07-06T08:48:02.610Z,3.83
2017-07-06T08:50:32.131Z,4.10
2017-07-06T08:53:01.709Z,3.80
2017-07-06T08:55:31.216Z,4.20
2017-07-06T08:58:00.729Z,4.70
2017-07-06T09:00:30.271Z,4.25
2017-07-06T09:02:59.784Z,5.00
2017-07-06T09:05:29.805Z,3.53
2017-07-06T09:07:59.265Z,4.30
2017-07-06T09:10:28.786Z,4.70
2017-07-06T09:12:58.518Z,4.60
2017-07-06T09:15:28.525Z,4.82
2017-07-06T09:17:58.753Z,4.30
2017-07-06T09:20:28.332Z,6.18
2017-07-06T09:22:57.951Z,4.60
2017-07-06T09:25:27.537Z,4.50
2017-07-06T09:27:57.173Z,4.60
2017-07-06T09:30:26.723Z,4.70
2017-07-06T09:32:57.872Z,4.90
2017-07-06T09:35:33.210Z,3.83
2017-07-06T09:38:02.730Z,4.55
2017-07-06T09:40:32.275Z,5.00
2017-07-06T09:43:01.825Z,4.20
2017-07-06T09:45:31.361Z,4.87
2017-07-06T09:48:01.191Z,4.50
2017-07-06T09:50:30.819Z,4.60
2017-07-06T09:53:00.356Z,4.70
2017-07-06T09:55:29.988Z,4.80
2017-07-06T09:57:59.628Z,4.70
2017-07-06T10:00:29.605Z,4.90
2017-07-06T10:02:59.519Z,4.70
2017-07-06T10:05:29.061Z,4.73
2017-07-06T10:07:58.822Z,5.23
2017-07-06T10:10:28.435Z,4.97
2017-07-06T10:12:57.964Z,5.22
2017-07-06T10:15:27.505Z,4.95
2017-07-06T10:17:57.064Z,4.82
2017-07-06T10:20:26.644Z,4.73
2017-07-06T10:22:56.207Z,5.30
2017-07-06T10:25:25.846Z,5.47
2017-07-06T10:27:55.522Z,5.30
2017-07-06T10:30:40.852Z,4.65
2017-07-06T10:33:10.631Z,5.50
2017-07-06T10:35:40.485Z,5.20
2017-07-06T10:38:10.168Z,5.00
2017-07-06T10:40:39.960Z,4.70
2017-07-06T10:43:09.504Z,4.60
2017-07-06T10:45:39.062Z,4.55
2017-07-06T10:48:08.697Z,4.10
2017-07-06T10:50:38.208Z,4.20
2017-07-06T10:53:07.745Z,4.53
2017-07-06T10:55:37.476Z,5.12
2017-07-06T10:58:07.173Z,5.35
2017-07-06T11:00:39.546Z,12.40
2017-07-06T11:03:15.022Z,11.12
2017-07-06T11:05:44.893Z,4.90
2017-07-06T11:08:14.433Z,5.00
2017-07-06T11:10:44.022Z,5.70
2017-07-06T11:13:14.163Z,5.90
2017-07-06T11:15:44.126Z,4.97
2017-07-06T11:18:13.692Z,5.10
2017-07-06T11:20:43.251Z,4.78
2017-07-06T11:23:12.793Z,4.80
2017-07-06T11:25:42.327Z,5.00
2017-07-06T11:28:11.940Z,4.87
2017-07-06T11:30:51.203Z,4.90
2017-07-06T11:33:21.006Z,4.65
2017-07-06T11:35:51.490Z,5.00
2017-07-06T11:38:21.289Z,4.50
2017-07-06T11:40:50.844Z,4.20
2017-07-06T11:43:20.615Z,4.60
2017-07-06T11:45:50.215Z,4.43
2017-07-06T11:48:19.769Z,5.10
2017-07-06T11:50:49.291Z,4.43
2017-07-06T11:53:33.542Z,4.12
2017-07-06T11:56:03.139Z,3.97
2017-07-06T11:58:32.751Z,3.80
2017-07-06T12:01:02.702Z,3.70
2017-07-06T12:03:32.388Z,4.00
2017-07-06T12:06:01.887Z,4.45
2017-07-06T12:08:31.406Z,4.60
2017-07-06T12:11:04.270Z,4.18
2017-07-06T12:13:34.042Z,4.70
2017-07-06T12:16:03.548Z,3.92
2017-07-06T12:18:33.044Z,3.97
2017-07-06T12:21:02.594Z,4.20
2017-07-06T12:23:32.120Z,4.23
2017-07-06T12:26:02.251Z,3.83
2017-07-06T12:28:31.991Z,4.05
2017-07-06T12:31:01.867Z,3.70
2017-07-06T12:33:31.656Z,3.90
2017-07-06T12:36:01.312Z,4.47
2017-07-06T12:38:30.989Z,4.60
2017-07-06T12:41:00.801Z,4.22
2017-07-06T12:43:31.904Z,3.40
2017-07-06T12:46:01.428Z,3.50
2017-07-06T12:48:31.201Z,4.10
2017-07-06T12:51:01.035Z,4.10
2017-07-06T12:53:30.584Z,4.10
2017-07-06T12:56:00.358Z,4.00
2017-07-06T12:58:29.894Z,4.30
2017-07-06T13:00:59.445Z,4.10
2017-07-06T13:03:29.089Z,3.80
2017-07-06T13:05:58.694Z,4.50
2017-07-06T13:08:28.241Z,4.55
2017-07-06T13:10:57.859Z,4.15
2017-07-06T13:13:29.792Z,4.43
2017-07-06T13:15:59.676Z,4.70
2017-07-06T13:18:29.364Z,4.30
2017-07-06T13:20:59.007Z,4.00
2017-07-06T13:23:28.508Z,4.60
2017-07-06T13:25:58.455Z,3.70
2017-07-06T13:28:28.700Z,4.37
2017-07-06T13:30:58.491Z,4.27
2017-07-06T13:33:28.229Z,4.40
2017-07-06T13:35:58.148Z,3.90
2017-07-06T13:38:28.548Z,4.20
2017-07-06T13:40:59.200Z,4.60
2017-07-06T13:43:29.364Z,4.60
2017-07-06T13:45:59.232Z,4.50
2017-07-06T13:48:29.495Z,3.87
2017-07-06T13:50:59.140Z,4.30
2017-07-06T13:53:29.899Z,4.20
2017-07-06T13:56:01.513Z,5.12
2017-07-06T13:58:31.113Z,4.03
2017-07-06T14:01:00.682Z,4.50
2017-07-06T14:03:30.835Z,3.92
2017-07-06T14:06:00.485Z,4.80
2017-07-06T14:08:31.037Z,4.00
2017-07-06T14:11:00.667Z,4.20
2017-07-06T14:13:30.216Z,4.40
2017-07-06T14:16:00.510Z,3.90
2017-07-06T14:18:30.063Z,5.20
2017-07-06T14:20:59.656Z,4.37
2017-07-06T14:23:29.264Z,4.18
2017-07-06T14:27:01.829Z,3.95
2017-07-06T14:29:31.474Z,5.30
2017-07-06T14:32:01.461Z,3.90
2017-07-06T14:34:31.055Z,3.80
2017-07-06T14:37:00.623Z,4.50
2017-07-06T14:39:30.264Z,3.90
2017-07-06T14:41:59.992Z,4.05
2017-07-06T14:44:30.138Z,4.37
2017-07-06T14:46:59.808Z,4.30
2017-07-06T14:49:29.419Z,4.23
2017-07-06T14:51:59.132Z,4.37
2017-07-06T14:54:29.483Z,4.80
2017-07-06T14:56:59.949Z,4.15
2017-07-06T14:59:29.486Z,4.20
2017-07-06T15:01:59.226Z,4.60
2017-07-06T15:04:28.815Z,5.03
2017-07-06T15:06:58.372Z,3.83
2017-07-06T15:09:53.225Z,5.00
2017-07-06T15:12:29.621Z,4.50
2017-07-06T15:14:59.901Z,5.33
2017-07-06T15:17:29.442Z,4.37
2017-07-06T15:19:59.075Z,3.50
2017-07-06T15:22:29.602Z,4.43
2017-07-06T15:24:59.190Z,4.90
2017-07-06T15:27:29.010Z,4.70
2017-07-06T15:29:58.674Z,3.53
2017-07-06T15:32:28.252Z,4.10
2017-07-06T15:34:57.897Z,4.20
2017-07-06T15:37:27.773Z,3.45
2017-07-06T15:39:57.780Z,3.83
2017-07-06T15:42:27.508Z,3.70
2017-07-06T15:44:57.985Z,3.78
2017-07-06T15:47:31.423Z,5.18
2017-07-06T15:50:01.373Z,4.30
2017-07-06T15:52:35.925Z,4.20
2017-07-06T15:55:05.606Z,3.95
2017-07-06T15:57:37.686Z,4.30
2017-07-06T16:00:09.478Z,3.95
2017-07-06T16:02:39.108Z,4.32
2017-07-06T16:05:08.823Z,4.20
2017-07-06T16:07:38.523Z,4.07
2017-07-06T16:10:08.379Z,4.30
2017-07-06T16:12:38.150Z,3.92
2017-07-06T16:15:08.891Z,3.80
2017-07-06T16:17:38.576Z,4.50
2017-07-06T16:20:08.199Z,3.70
2017-07-06T16:22:38.259Z,3.90
2017-07-06T16:25:07.904Z,4.68
2017-07-06T16:27:37.820Z,4.25
2017-07-06T16:30:07.512Z,4.28
2017-07-06T16:32:37.213Z,4.40
2017-07-06T16:35:07.027Z,4.40
2017-07-06T16:37:36.646Z,4.55
2017-07-06T16:40:06.584Z,4.80
2017-07-06T16:42:36.640Z,4.45
2017-07-06T16:45:06.988Z,4.25
2017-07-06T16:47:37.644Z,4.53
2017-07-06T16:50:07.387Z,5.40
2017-07-06T16:52:37.562Z,4.28
2017-07-06T16:55:07.857Z,4.80
2017-07-06T16:57:40.664Z,5.35
2017-07-06T17:00:13.894Z,4.55
2017-07-06T17:02:43.996Z,4.20
2017-07-06T17:05:14.362Z,4.93
2017-07-06T17:07:44.823Z,4.20
2017-07-06T17:10:14.740Z,4.50
2017-07-06T17:12:44.382Z,4.30
2017-07-06T17:15:14.140Z,4.37
2017-07-06T17:17:44.545Z,4.10
2017-07-06T17:20:14.131Z,4.30
2017-07-06T17:22:43.813Z,3.60
2017-07-06T17:25:13.442Z,4.53
2017-07-06T17:27:42.999Z,4.50
2017-07-06T17:30:12.728Z,3.90
2017-07-06T17:32:42.295Z,3.70
2017-07-06T17:35:11.915Z,3.90
2017-07-06T17:37:41.457Z,4.10
2017-07-06T17:40:11.776Z,5.90
2017-07-06T17:42:41.523Z,4.23
2017-07-06T17:45:18.277Z,4.25
2017-07-06T17:47:47.836Z,3.40
2017-07-06T17:50:17.431Z,4.40
2017-07-06T17:52:47.256Z,4.00
2017-07-06T17:55:16.797Z,4.35
2017-07-06T17:57:46.452Z,4.68
2017-07-06T18:00:16.501Z,4.50
2017-07-06T18:02:46.372Z,4.50
2017-07-06T18:05:17.234Z,5.00
2017-07-06T18:07:47.048Z,4.20
2017-07-06T18:10:19.637Z,5.50
2017-07-06T18:12:49.311Z,4.50
2017-07-06T18:15:18.892Z,5.27
2017-07-06T18:17:48.438Z,4.70
2017-07-06T18:20:18.214Z,5.75
2017-07-06T18:22:48.191Z,5.47
2017-07-06T18:25:17.768Z,5.22
2017-07-06T18:27:47.460Z,4.62
2017-07-06T18:30:17.233Z,5.43
2017-07-06T18:32:46.914Z,5.18
2017-07-06T18:35:23.104Z,5.30
2017-07-06T18:37:52.744Z,4.53
2017-07-06T18:40:22.716Z,5.20
2017-07-06T18:42:52.241Z,5.78
2017-07-06T18:45:23.414Z,6.03
2017-07-06T18:47:53.082Z,5.30
2017-07-06T18:50:23.093Z,6.50
2017-07-06T18:52:53.223Z,6.15
2017-07-06T18:55:23.623Z,5.60
2017-07-06T18:57:53.689Z,5.25
2017-07-06T19:00:23.674Z,5.50
2017-07-06T19:02:53.620Z,5.93
2017-07-06T19:05:27.743Z,5.28
2017-07-06T19:07:58.236Z,6.43
2017-07-06T19:10:27.952Z,6.40
2017-07-06T19:12:57.611Z,6.28
2017-07-06T19:15:27.318Z,6.45
2017-07-06T19:17:57.008Z,7.20
2017-07-06T19:20:26.601Z,6.20
2017-07-06T19:22:56.546Z,7.18
2017-07-06T19:25:26.135Z,6.00
2017-07-06T19:27:55.754Z,5.68
2017-07-06T19:30:25.373Z,5.97
2017-07-06T19:32:54.932Z,6.75
2017-07-06T19:35:24.927Z,6.10
2017-07-06T19:37:54.783Z,4.95
2017-07-06T19:40:24.933Z,7.53
2017-07-06T19:42:54.907Z,6.50
2017-07-06T19:45:25.459Z,6.20
2017-07-06T19:47:55.543Z,6.00
2017-07-06T19:50:25.632Z,6.20
2017-07-06T19:52:58.427Z,6.90
2017-07-06T19:55:27.984Z,5.97
2017-07-06T19:57:58.311Z,6.00
2017-07-06T20:00:28.095Z,5.93
2017-07-06T20:02:57.842Z,5.30
2017-07-06T20:05:27.708Z,5.80
2017-07-06T20:07:57.309Z,6.22
2017-07-06T20:10:26.905Z,7.70
2017-07-06T20:12:56.544Z,6.70
2017-07-06T20:15:26.273Z,7.18
2017-07-06T20:17:56.211Z,6.30
2017-07-06T20:20:25.832Z,5.33
2017-07-06T20:22:55.460Z,5.90
2017-07-06T20:25:25.045Z,5.87
2017-07-06T20:27:54.632Z,5.62
2017-07-06T20:30:24.242Z,6.12
2017-07-06T20:32:53.846Z,5.97
2017-07-06T20:35:23.435Z,4.82
2017-07-06T20:37:53.051Z,5.80
2017-07-06T20:40:22.604Z,4.80
2017-07-06T20:42:52.172Z,5.40
2017-07-06T20:45:21.844Z,5.68
2017-07-06T20:47:51.719Z,5.55
2017-07-06T20:50:21.479Z,6.93
2017-07-06T20:52:51.176Z,5.97
2017-07-06T20:55:20.735Z,6.22
2017-07-06T20:57:50.488Z,7.10
2017-07-06T21:00:20.402Z,6.93
2017-07-06T21:02:49.974Z,5.97
2017-07-06T21:05:19.659Z,6.70
2017-07-06T21:07:49.226Z,6.80
2017-07-06T21:10:19.834Z,5.97
2017-07-06T21:12:49.363Z,5.10
2017-07-06T21:15:18.949Z,5.55
2017-07-06T21:17:48.803Z,6.12
2017-07-06T21:20:18.408Z,5.60
2017-07-06T21:22:47.991Z,5.80
2017-07-06T21:25:17.554Z,5.47
2017-07-06T21:27:47.384Z,5.50
2017-07-06T21:30:17.588Z,5.05
2017-07-06T21:32:47.110Z,4.82
2017-07-06T21:35:16.908Z,5.35
2017-07-06T21:37:46.862Z,5.15
2017-07-06T21:40:16.838Z,4.87
2017-07-06T21:42:47.247Z,5.97
2017-07-06T21:45:28.191Z,6.00
2017-07-06T21:47:58.436Z,5.68
2017-07-06T21:50:28.267Z,5.12
2017-07-06T21:52:57.979Z,5.37
2017-07-06T21:55:28.101Z,4.78
2017-07-06T21:57:58.392Z,5.10
2017-07-06T22:00:28.659Z,5.10
2017-07-06T22:02:59.876Z,5.07
2017-07-06T22:05:29.835Z,5.57
2017-07-06T22:07:59.973Z,5.10
2017-07-06T22:10:29.789Z,5.20
2017-07-06T22:12:59.719Z,5.40
2017-07-06T22:15:29.348Z,5.40
2017-07-06T22:17:58.877Z,4.70
2017-07-06T22:20:28.449Z,4.90
2017-07-06T22:22:58.622Z,5.00
2017-07-06T22:25:28.581Z,6.15
2017-07-06T22:27:58.611Z,5.40
2017-07-06T22:30:28.147Z,5.30
2017-07-06T22:32:58.085Z,5.00
2017-07-06T22:35:27.993Z,5.28
2017-07-06T22:37:57.995Z,6.00
2017-07-06T22:40:28.716Z,6.97
2017-07-06T22:42:58.559Z,6.85
2017-07-06T22:45:28.107Z,6.85
2017-07-06T22:47:57.616Z,5.60
2017-07-06T22:50:27.159Z,6.00
2017-07-06T22:52:57.077Z,5.70
2017-07-06T22:55:26.990Z,5.40
2017-07-06T22:57:56.857Z,4.95
2017-07-06T23:00:26.544Z,4.90
2017-07-06T23:02:56.621Z,4.25
2017-07-06T23:05:26.349Z,6.07
2017-07-06T23:07:56.273Z,4.55
2017-07-06T23:10:26.017Z,4.50
2017-07-06T23:12:56.667Z,5.45
2017-07-06T23:15:26.628Z,5.80
2017-07-06T23:17:56.520Z,5.13
2017-07-06T23:20:26.461Z,5.70
2017-07-06T23:22:57.205Z,4.28
2017-07-06T23:25:27.540Z,4.80
2017-07-06T23:27:57.329Z,4.78
2017-07-06T23:30:28.243Z,4.78
2017-07-06T23:32:58.093Z,4.70
2017-07-06T23:35:28.019Z,5.07
2017-07-06T23:37:58.536Z,5.00
2017-07-06T23:40:28.226Z,4.80
2017-07-06T23:42:58.125Z,5.12
2017-07-06T23:45:28.234Z,4.62
2017-07-06T23:47:58.064Z,4.50
2017-07-06T23:50:27.856Z,4.40
2017-07-06T23:52:57.809Z,5.10
2017-07-06T23:55:27.963Z,5.30
2017-07-06T23:57:57.500Z,4.60
